createdAt,value
2023-04-16T04:00:42.570Z,99.99
2023-04-16T04:01:43.592Z,99.99
2023-04-16T04:02:43.790Z,99.99
2023-04-16T04:03:43.716Z,99.99
2023-04-16T04:04:43.631Z,99.99
2023-04-16T04:05:43.593Z,99.99
2023-04-16T04:06:43.485Z,99.99
2023-04-16T04:07:43.494Z,99.99
2023-04-16T04:08:43.476Z,99.99
2023-04-16T04:09:43.456Z,99.99
2023-04-16T04:10:43.481Z,99.99
2023-04-16T04:11:43.465Z,99.99
2023-04-16T04:12:43.436Z,99.99
2023-04-16T04:13:43.420Z,99.99
2023-04-16T04:14:43.406Z,99.99
2023-04-16T04:15:43.385Z,99.99
2023-04-16T04:16:43.473Z,99.99
2023-04-16T04:17:43.418Z,99.99
2023-04-16T04:18:44.478Z,99.99
2023-04-16T04:19:54.275Z,99.99
2023-04-16T04:20:43.358Z,99.99
2023-04-16T04:21:43.361Z,99.99
2023-04-16T04:22:43.328Z,99.99
2023-04-16T04:23:43.328Z,99.99
2023-04-16T04:24:43.332Z,99.99
2023-04-16T04:25:43.296Z,99.99
2023-04-16T04:26:43.326Z,99.99
2023-04-16T04:27:43.257Z,99.99
2023-04-16T04:28:43.288Z,99.99
2023-04-16T04:29:43.259Z,99.99
2023-04-16T04:30:43.258Z,99.99
2023-04-16T04:31:43.300Z,99.99
2023-04-16T04:32:43.304Z,99.99
2023-04-16T04:33:43.222Z,99.99
2023-04-16T04:34:43.215Z,99.99
2023-04-16T04:35:43.194Z,99.99
2023-04-16T04:36:43.206Z,99.99
2023-04-16T04:37:43.167Z,99.99
2023-04-16T04:38:43.161Z,99.99
2023-04-16T04:39:43.161Z,99.99
2023-04-16T04:40:43.131Z,99.99
2023-04-16T04:41:43.154Z,99.99
2023-04-16T04:42:43.131Z,99.99
2023-04-16T04:43:43.128Z,99.99
2023-04-16T04:44:43.101Z,99.99
2023-04-16T04:45:43.150Z,99.99
2023-04-16T04:46:43.123Z,99.99
2023-04-16T04:47:43.114Z,99.99
2023-04-16T04:48:43.086Z,99.99
2023-04-16T04:49:43.029Z,99.99
2023-04-16T04:50:43.033Z,99.99
2023-04-16T04:51:43.108Z,99.99
2023-04-16T04:52:43.012Z,99.99
2023-04-16T04:53:43.018Z,99.99
2023-04-16T04:54:43.027Z,99.99
2023-04-16T04:55:42.984Z,99.99
2023-04-16T04:56:42.985Z,99.99
2023-04-16T04:57:42.965Z,99.99
2023-04-16T04:58:42.980Z,99.99
2023-04-16T04:59:42.931Z,99.99
2023-04-16T05:00:43.096Z,99.99
2023-04-16T05:01:42.927Z,99.99
2023-04-16T05:02:43.013Z,99.99
2023-04-16T05:03:42.982Z,99.99
2023-04-16T05:04:43.068Z,99.99
2023-04-16T05:05:42.864Z,99.99
2023-04-16T05:06:42.876Z,99.99
2023-04-16T05:07:42.848Z,99.99
2023-04-16T05:08:42.844Z,99.99
2023-04-16T05:09:42.825Z,99.99
2023-04-16T05:10:42.818Z,99.99
2023-04-16T05:11:43.090Z,99.99
2023-04-16T05:12:42.795Z,99.99
2023-04-16T05:13:42.815Z,99.99
2023-04-16T05:14:42.774Z,99.99
2023-04-16T05:15:42.782Z,99.99
2023-04-16T05:16:42.805Z,99.99
2023-04-16T05:17:42.821Z,99.99
2023-04-16T05:18:42.733Z,99.99
2023-04-16T05:19:42.724Z,99.99
2023-04-16T05:20:42.712Z,99.99
2023-04-16T05:21:42.734Z,99.99
2023-04-16T05:22:42.691Z,99.99
2023-04-16T05:23:42.701Z,99.99
2023-04-16T05:24:42.767Z,99.99
2023-04-16T05:25:42.696Z,99.99
2023-04-16T05:26:42.685Z,99.99
2023-04-16T05:27:42.652Z,99.99
2023-04-16T05:28:42.656Z,99.99
2023-04-16T05:29:42.646Z,99.99
2023-04-16T05:30:42.685Z,99.99
2023-04-16T05:31:42.626Z,99.99
2023-04-16T05:32:42.617Z,99.99
2023-04-16T05:33:42.576Z,99.99
2023-04-16T05:34:42.574Z,99.99
2023-04-16T05:35:42.571Z,99.99
2023-04-16T05:36:42.565Z,99.99
2023-04-16T05:37:42.538Z,99.99
2023-04-16T05:38:42.523Z,99.99
2023-04-16T05:39:42.522Z,99.99
2023-04-16T05:40:42.504Z,99.99
2023-04-16T05:41:42.496Z,99.99
2023-04-16T05:42:42.480Z,99.99
2023-04-16T05:43:42.521Z,99.99
2023-04-16T05:44:42.483Z,99.99
2023-04-16T05:45:42.522Z,99.99
2023-04-16T05:46:42.463Z,99.99
2023-04-16T05:47:42.476Z,99.99
2023-04-16T05:48:42.430Z,99.99
2023-04-16T05:49:42.431Z,99.99
2023-04-16T05:50:42.425Z,99.99
2023-04-16T05:51:42.453Z,99.99
2023-04-16T05:52:42.387Z,99.99
2023-04-16T05:53:42.421Z,99.99
2023-04-16T05:54:42.387Z,99.99
2023-04-16T05:55:42.354Z,99.99
2023-04-16T05:56:42.346Z,99.99
2023-04-16T05:57:42.330Z,99.99
2023-04-16T05:58:42.449Z,99.99
2023-04-16T05:59:42.356Z,99.99
2023-04-16T06:00:42.282Z,99.99
2023-04-16T06:01:42.314Z,99.99
2023-04-16T06:02:42.448Z,99.99
2023-04-16T06:03:42.319Z,99.99
2023-04-16T06:04:42.273Z,99.99
2023-04-16T06:05:42.289Z,99.99
2023-04-16T06:06:42.246Z,99.99
2023-04-16T06:07:42.232Z,99.99
2023-04-16T06:08:42.234Z,99.99
2023-04-16T06:09:42.207Z,99.99
2023-04-16T06:10:42.204Z,99.99
2023-04-16T06:11:42.242Z,99.99
2023-04-16T06:12:42.167Z,99.99
2023-04-16T06:13:42.159Z,99.99
2023-04-16T06:14:42.162Z,99.99
2023-04-16T06:15:42.207Z,99.99
2023-04-16T06:16:42.153Z,99.99
2023-04-16T06:17:42.123Z,99.99
2023-04-16T06:18:42.142Z,99.99
2023-04-16T06:19:42.103Z,99.99
2023-04-16T06:20:42.111Z,99.99
2023-04-16T06:21:42.087Z,99.99
2023-04-16T06:22:42.054Z,99.99
2023-04-16T06:23:42.074Z,99.99
2023-04-16T06:24:42.038Z,99.99
2023-04-16T06:25:42.021Z,99.99
2023-04-16T06:26:42.049Z,99.99
2023-04-16T06:27:42.035Z,99.99
2023-04-16T06:28:42.001Z,99.99
2023-04-16T06:29:42.109Z,99.99
2023-04-16T06:30:44.467Z,99.99
2023-04-16T06:31:42.042Z,99.99
2023-04-16T06:32:42.030Z,99.99
2023-04-16T06:33:41.941Z,99.99
2023-04-16T06:34:41.937Z,99.99
2023-04-16T06:35:41.954Z,99.99
2023-04-16T06:36:41.912Z,99.99
2023-04-16T06:37:41.898Z,99.99
2023-04-16T06:38:41.896Z,99.99
2023-04-16T06:39:41.891Z,99.99
2023-04-16T06:40:41.909Z,99.99
2023-04-16T06:41:41.859Z,99.99
2023-04-16T06:42:43.584Z,99.99
2023-04-16T06:43:41.862Z,99.99
2023-04-16T06:44:41.851Z,99.99
2023-04-16T06:45:41.836Z,99.99
2023-04-16T06:46:41.860Z,99.99
2023-04-16T06:47:41.887Z,99.99
2023-04-16T06:48:41.773Z,99.99
2023-04-16T06:49:41.813Z,99.99
2023-04-16T06:50:41.750Z,99.99
2023-04-16T06:51:41.773Z,99.99
2023-04-16T06:52:41.742Z,99.99
2023-04-16T06:53:41.737Z,99.99
2023-04-16T06:54:41.745Z,99.99
2023-04-16T06:55:41.716Z,99.99
2023-04-16T06:56:41.708Z,99.99
2023-04-16T06:57:41.691Z,99.99
2023-04-16T06:58:41.693Z,99.99
2023-04-16T06:59:41.681Z,99.99
2023-04-16T07:00:41.691Z,99.99
2023-04-16T07:01:41.707Z,99.99
2023-04-16T07:02:41.748Z,99.99
2023-04-16T07:03:41.839Z,99.99
2023-04-16T07:04:41.615Z,99.99
2023-04-16T07:05:41.605Z,99.99
2023-04-16T07:06:41.608Z,99.99
2023-04-16T07:07:41.585Z,99.99
2023-04-16T07:08:41.571Z,99.99
2023-04-16T07:09:41.563Z,99.99
2023-04-16T07:10:41.564Z,99.99
2023-04-16T07:11:41.583Z,99.99
2023-04-16T07:12:41.527Z,99.99
2023-04-16T07:13:41.522Z,99.99
2023-04-16T07:14:41.512Z,99.99
2023-04-16T07:15:41.495Z,99.99
2023-04-16T07:16:41.551Z,99.99
2023-04-16T07:17:41.540Z,99.99
2023-04-16T07:18:41.457Z,99.99
2023-04-16T07:19:41.453Z,99.99
2023-04-16T07:20:41.461Z,99.99
2023-04-16T07:21:41.477Z,99.99
2023-04-16T07:22:41.436Z,99.99
2023-04-16T07:23:41.413Z,99.99
2023-04-16T07:24:41.413Z,99.99
2023-04-16T07:25:41.387Z,99.99
2023-04-16T07:26:41.442Z,99.99
2023-04-16T07:27:41.369Z,99.99
2023-04-16T07:28:41.398Z,99.99
2023-04-16T07:29:41.399Z,99.99
2023-04-16T07:30:41.373Z,99.99
2023-04-16T07:31:41.399Z,99.99
2023-04-16T07:32:41.355Z,99.99
2023-04-16T07:33:41.324Z,99.99
2023-04-16T07:34:41.296Z,99.99
2023-04-16T07:35:41.318Z,99.99
2023-04-16T07:36:41.296Z,99.99
2023-04-16T07:37:41.276Z,99.99
2023-04-16T07:38:41.317Z,99.99
2023-04-16T07:39:41.269Z,99.99
2023-04-16T07:40:41.258Z,99.99
2023-04-16T07:41:41.409Z,99.99
2023-04-16T07:42:41.223Z,99.99
2023-04-16T07:43:41.409Z,99.99
2023-04-16T07:44:41.220Z,99.99
2023-04-16T07:45:41.594Z,99.99
2023-04-16T07:46:46.929Z,99.99
2023-04-16T07:47:41.193Z,99.99
2023-04-16T07:48:41.177Z,99.99
2023-04-16T07:49:41.145Z,99.99
2023-04-16T07:50:41.172Z,99.99
2023-04-16T07:51:41.170Z,99.99
2023-04-16T07:52:41.117Z,99.99
2023-04-16T07:53:41.120Z,99.99
2023-04-16T07:54:41.089Z,99.99
2023-04-16T07:55:41.112Z,99.99
2023-04-16T07:56:41.088Z,99.99
2023-04-16T07:57:41.062Z,99.99
2023-04-16T07:58:41.042Z,99.99
2023-04-16T07:59:41.088Z,99.99
2023-04-16T08:00:41.017Z,99.99
2023-04-16T08:01:41.019Z,99.99
2023-04-16T08:02:41.221Z,99.99
2023-04-16T08:03:41.126Z,99.99
2023-04-16T08:04:41.314Z,99.99
2023-04-16T08:05:40.969Z,99.99
2023-04-16T08:06:40.966Z,99.99
2023-04-16T08:07:40.953Z,99.99
2023-04-16T08:08:41.116Z,99.99
2023-04-16T08:09:40.935Z,99.99
2023-04-16T08:10:40.925Z,99.99
2023-04-16T08:11:40.930Z,99.99
2023-04-16T08:12:40.927Z,99.99
2023-04-16T08:13:40.929Z,99.99
2023-04-16T08:14:40.890Z,99.99
2023-04-16T08:15:40.961Z,99.99
2023-04-16T08:16:40.892Z,99.99
2023-04-16T08:17:40.864Z,99.99
2023-04-16T08:18:40.856Z,99.99
2023-04-16T08:19:40.847Z,99.99
2023-04-16T08:20:40.894Z,99.99
2023-04-16T08:21:40.816Z,99.99
2023-04-16T08:22:40.819Z,99.99
2023-04-16T08:23:40.772Z,99.99
2023-04-16T08:24:40.815Z,99.99
2023-04-16T08:25:40.833Z,99.99
2023-04-16T08:26:40.763Z,99.99
2023-04-16T08:27:40.767Z,99.99
2023-04-16T08:28:40.748Z,99.99
2023-04-16T08:29:40.713Z,99.99
2023-04-16T08:30:40.719Z,99.99
2023-04-16T08:31:40.743Z,99.99
2023-04-16T08:32:40.735Z,99.99
2023-04-16T08:33:40.683Z,99.99
2023-04-16T08:34:40.671Z,99.99
2023-04-16T08:35:40.658Z,99.99
2023-04-16T08:36:40.660Z,99.99
2023-04-16T08:37:40.658Z,99.99
2023-04-16T08:38:40.653Z,99.99
2023-04-16T08:39:40.626Z,99.99
2023-04-16T08:40:40.599Z,99.99
2023-04-16T08:41:40.589Z,99.99
2023-04-16T08:42:40.622Z,99.99
2023-04-16T08:43:40.579Z,99.99
2023-04-16T08:44:40.572Z,99.99
2023-04-16T08:45:40.546Z,99.99
2023-04-16T08:46:40.626Z,99.99
2023-04-16T08:47:40.583Z,99.99
2023-04-16T08:48:40.505Z,99.99
2023-04-16T08:49:40.538Z,99.99
2023-04-16T08:50:40.535Z,99.99
2023-04-16T08:51:40.474Z,99.99
2023-04-16T08:52:40.497Z,99.99
2023-04-16T08:53:40.469Z,99.99
2023-04-16T08:54:40.667Z,99.99
2023-04-16T08:55:40.479Z,99.99
2023-04-16T08:56:42.851Z,99.99
2023-04-16T08:57:40.424Z,99.99
2023-04-16T08:58:40.407Z,99.99
2023-04-16T08:59:40.419Z,99.99
2023-04-16T09:00:40.595Z,99.99
2023-04-16T09:01:40.425Z,96.66
2023-04-16T09:02:40.686Z,97.47
2023-04-16T09:03:40.422Z,96.45
2023-04-16T09:04:40.406Z,96.91
2023-04-16T09:05:40.374Z,96.74
2023-04-16T09:06:40.348Z,98.79
2023-04-16T09:07:40.320Z,99.20
2023-04-16T09:08:40.309Z,99.71
2023-04-16T09:09:40.313Z,99.82
2023-04-16T09:10:40.320Z,99.51
2023-04-16T09:11:40.290Z,99.99
2023-04-16T09:12:40.345Z,99.66
2023-04-16T09:13:40.264Z,97.77
2023-04-16T09:14:40.272Z,98.02
2023-04-16T09:15:40.256Z,99.99
2023-04-16T09:16:40.421Z,99.35
2023-04-16T09:17:40.262Z,99.76
2023-04-16T09:18:40.203Z,99.99
2023-04-16T09:19:40.273Z,99.99
2023-04-16T09:20:40.174Z,99.99
2023-04-16T09:21:40.190Z,99.99
2023-04-16T09:22:40.159Z,99.99
2023-04-16T09:23:40.172Z,98.58
2023-04-16T09:24:40.246Z,98.13
2023-04-16T09:25:40.132Z,97.98
2023-04-16T09:26:40.142Z,98.45
2023-04-16T09:27:40.116Z,98.10
2023-04-16T09:28:40.099Z,96.42
2023-04-16T09:29:40.103Z,93.66
2023-04-16T09:30:40.083Z,92.90
2023-04-16T09:31:40.122Z,92.39
2023-04-16T09:32:40.158Z,92.59
2023-04-16T09:33:40.062Z,94.18
2023-04-16T09:34:40.072Z,91.74
2023-04-16T09:35:40.059Z,92.50
2023-04-16T09:36:40.029Z,92.10
2023-04-16T09:37:40.027Z,90.06
2023-04-16T09:38:40.014Z,89.45
2023-04-16T09:39:40.016Z,90.16
2023-04-16T09:40:39.994Z,90.51
2023-04-16T09:41:39.971Z,90.35
2023-04-16T09:42:39.984Z,90.86
2023-04-16T09:43:39.959Z,92.33
2023-04-16T09:44:40.017Z,92.33
2023-04-16T09:45:39.990Z,94.27
2023-04-16T09:46:39.934Z,91.72
2023-04-16T09:47:40.070Z,91.35
2023-04-16T09:48:39.897Z,93.15
2023-04-16T09:49:39.898Z,94.94
2023-04-16T09:50:40.031Z,92.29
2023-04-16T09:51:39.873Z,93.66
2023-04-16T09:52:39.869Z,95.90
2023-04-16T09:53:39.880Z,93.35
2023-04-16T09:54:39.857Z,93.35
2023-04-16T09:55:39.858Z,95.09
2023-04-16T09:56:39.825Z,92.58
2023-04-16T09:57:39.815Z,96.36
2023-04-16T09:58:39.785Z,93.24
2023-04-16T09:59:39.806Z,95.59
2023-04-16T10:00:43.237Z,97.02
2023-04-16T10:01:39.843Z,96.20
2023-04-16T10:02:39.857Z,94.71
2023-04-16T10:03:40.121Z,96.55
2023-04-16T10:04:39.749Z,97.11
2023-04-16T10:05:39.760Z,98.95
2023-04-16T10:06:39.706Z,98.33
2023-04-16T10:07:39.717Z,98.95
2023-04-16T10:08:39.677Z,99.05
2023-04-16T10:09:39.696Z,98.03
2023-04-16T10:10:39.665Z,98.33
2023-04-16T10:11:39.667Z,98.85
2023-04-16T10:12:40.206Z,99.36
2023-04-16T10:13:39.651Z,98.54
2023-04-16T10:14:39.654Z,97.82
2023-04-16T10:15:39.650Z,98.65
2023-04-16T10:16:39.766Z,99.15
2023-04-16T10:17:39.630Z,99.99
2023-04-16T10:18:39.696Z,99.15
2023-04-16T10:19:39.591Z,98.60
2023-04-16T10:20:39.569Z,97.37
2023-04-16T10:21:39.552Z,97.41
2023-04-16T10:22:39.546Z,97.62
2023-04-16T10:23:39.534Z,98.39
2023-04-16T10:24:39.545Z,99.21
2023-04-16T10:25:39.538Z,98.90
2023-04-16T10:26:39.506Z,96.75
2023-04-16T10:27:39.510Z,96.45
2023-04-16T10:28:39.545Z,96.04
2023-04-16T10:29:39.475Z,96.08
2023-04-16T10:30:39.578Z,96.08
2023-04-16T10:31:39.488Z,96.91
2023-04-16T10:32:39.503Z,96.59
2023-04-16T10:33:39.457Z,96.49
2023-04-16T10:34:39.423Z,95.98
2023-04-16T10:35:39.413Z,96.70
2023-04-16T10:36:39.484Z,97.62
2023-04-16T10:37:39.397Z,96.91
2023-04-16T10:38:39.384Z,98.54
2023-04-16T10:39:39.403Z,98.65
2023-04-16T10:40:39.370Z,97.52
2023-04-16T10:41:39.378Z,97.00
2023-04-16T10:42:39.345Z,97.52
2023-04-16T10:43:39.335Z,97.31
2023-04-16T10:44:39.725Z,97.62
2023-04-16T10:45:39.312Z,98.39
2023-04-16T10:46:39.409Z,97.06
2023-04-16T10:47:39.312Z,97.11
2023-04-16T10:48:49.147Z,95.98
2023-04-16T10:49:39.330Z,96.04
2023-04-16T10:50:39.265Z,95.63
2023-04-16T10:51:39.293Z,94.71
2023-04-16T10:52:39.274Z,95.32
2023-04-16T10:53:39.216Z,95.89
2023-04-16T10:54:39.260Z,95.23
2023-04-16T10:55:39.220Z,93.76
2023-04-16T10:56:39.248Z,91.92
2023-04-16T10:57:39.244Z,91.86
2023-04-16T10:58:39.204Z,91.66
2023-04-16T10:59:39.199Z,92.68
2023-04-16T11:00:39.144Z,92.68
2023-04-16T11:01:39.188Z,91.86
2023-04-16T11:02:39.399Z,91.76
2023-04-16T11:03:39.214Z,91.25
2023-04-16T11:04:39.357Z,90.70
2023-04-16T11:05:39.120Z,90.19
2023-04-16T11:06:39.156Z,90.70
2023-04-16T11:07:39.060Z,89.67
2023-04-16T11:08:53.255Z,90.49
2023-04-16T11:09:39.080Z,90.66
2023-04-16T11:10:39.053Z,89.59
2023-04-16T11:11:39.016Z,89.14
2023-04-16T11:12:39.060Z,87.10
2023-04-16T11:13:39.012Z,87.16
2023-04-16T11:14:39.038Z,87.12
2023-04-16T11:15:39.024Z,85.90
2023-04-16T11:16:38.975Z,84.96
2023-04-16T11:17:39.022Z,85.94
2023-04-16T11:18:43.571Z,86.04
2023-04-16T11:19:38.958Z,84.92
2023-04-16T11:20:38.949Z,86.24
2023-04-16T11:21:39.021Z,85.49
2023-04-16T11:22:38.899Z,84.58
2023-04-16T11:23:38.890Z,86.41
2023-04-16T11:24:38.922Z,84.88
2023-04-16T11:25:38.863Z,84.17
2023-04-16T11:26:38.890Z,83.80
2023-04-16T11:27:38.857Z,84.51
2023-04-16T11:28:38.845Z,84.66
2023-04-16T11:29:38.860Z,85.22
2023-04-16T11:30:38.817Z,87.12
2023-04-16T11:31:38.875Z,86.77
2023-04-16T11:32:38.825Z,83.98
2023-04-16T11:33:38.790Z,83.01
2023-04-16T11:34:38.821Z,82.87
2023-04-16T11:35:38.782Z,82.56
2023-04-16T11:36:38.782Z,81.27
2023-04-16T11:37:38.738Z,81.82
2023-04-16T11:38:38.741Z,83.15
2023-04-16T11:39:38.760Z,83.86
2023-04-16T11:40:38.738Z,82.43
2023-04-16T11:41:38.752Z,82.84
2023-04-16T11:42:38.775Z,82.50
2023-04-16T11:43:38.715Z,83.01
2023-04-16T11:44:38.688Z,82.19
2023-04-16T11:45:38.659Z,82.17
2023-04-16T11:46:38.725Z,83.80
2023-04-16T11:47:38.673Z,84.11
2023-04-16T11:48:38.637Z,83.76
2023-04-16T11:49:38.608Z,82.94
2023-04-16T11:50:38.622Z,83.21
2023-04-16T11:51:38.617Z,83.11
2023-04-16T11:52:38.598Z,81.58
2023-04-16T11:53:38.569Z,81.88
2023-04-16T11:54:38.602Z,80.16
2023-04-16T11:55:38.568Z,81.79
2023-04-16T11:56:38.547Z,81.68
2023-04-16T11:57:38.536Z,81.65
2023-04-16T11:58:38.518Z,81.85
2023-04-16T11:59:38.523Z,80.73
2023-04-16T12:00:38.548Z,82.35
2023-04-16T12:01:38.506Z,79.98
2023-04-16T12:02:38.593Z,81.20
2023-04-16T12:03:38.750Z,81.20
2023-04-16T12:04:38.595Z,79.94
2023-04-16T12:05:38.493Z,79.60
2023-04-16T12:06:38.459Z,79.80
2023-04-16T12:07:38.435Z,79.60
2023-04-16T12:08:38.422Z,78.86
2023-04-16T12:09:40.446Z,79.47
2023-04-16T12:10:38.423Z,80.85
2023-04-16T12:11:38.365Z,79.77
2023-04-16T12:12:38.365Z,79.06
2023-04-16T12:13:38.354Z,80.38
2023-04-16T12:14:38.380Z,80.69
2023-04-16T12:15:38.357Z,79.94
2023-04-16T12:16:38.339Z,79.37
2023-04-16T12:17:38.464Z,79.47
2023-04-16T12:18:38.335Z,79.88
2023-04-16T12:19:38.316Z,79.33
2023-04-16T12:20:38.352Z,78.41
2023-04-16T12:21:38.287Z,79.47
2023-04-16T12:22:38.269Z,81.40
2023-04-16T12:23:38.278Z,80.15
2023-04-16T12:24:38.278Z,79.74
2023-04-16T12:25:38.275Z,79.02
2023-04-16T12:26:38.263Z,79.16
2023-04-16T12:27:38.234Z,79.00
2023-04-16T12:28:38.261Z,80.22
2023-04-16T12:29:38.217Z,80.29
2023-04-16T12:30:38.234Z,81.82
2023-04-16T12:31:38.234Z,81.45
2023-04-16T12:32:38.173Z,82.54
2023-04-16T12:33:38.157Z,82.64
2023-04-16T12:34:48.826Z,83.76
2023-04-16T12:35:38.181Z,82.23
2023-04-16T12:36:38.142Z,83.04
2023-04-16T12:37:38.113Z,82.64
2023-04-16T12:38:38.105Z,82.90
2023-04-16T12:39:38.093Z,81.17
2023-04-16T12:40:38.075Z,82.90
2023-04-16T12:41:38.079Z,82.46
2023-04-16T12:42:38.081Z,82.56
2023-04-16T12:43:38.036Z,81.13
2023-04-16T12:44:38.086Z,80.52
2023-04-16T12:45:38.056Z,80.77
2023-04-16T12:46:38.120Z,81.13
2023-04-16T12:47:38.109Z,80.32
2023-04-16T12:48:38.041Z,80.52
2023-04-16T12:49:37.986Z,80.22
2023-04-16T12:50:37.998Z,80.77
2023-04-16T12:51:37.979Z,80.32
2023-04-16T12:52:37.984Z,79.88
2023-04-16T12:53:37.926Z,80.90
2023-04-16T12:54:37.945Z,80.55
2023-04-16T12:55:37.929Z,80.72
2023-04-16T12:56:37.902Z,79.50
2023-04-16T12:57:37.900Z,77.87
2023-04-16T12:58:37.892Z,78.99
2023-04-16T12:59:37.900Z,78.11
2023-04-16T13:00:37.876Z,79.06
2023-04-16T13:01:37.873Z,80.11
2023-04-16T13:02:37.995Z,80.73
2023-04-16T13:03:37.923Z,81.74
2023-04-16T13:04:37.924Z,80.63
2023-04-16T13:05:37.848Z,80.77
2023-04-16T13:06:37.808Z,81.79
2023-04-16T13:07:37.813Z,81.27
2023-04-16T13:08:37.796Z,80.93
2023-04-16T13:09:39.617Z,81.24
2023-04-16T13:10:37.753Z,81.20
2023-04-16T13:11:37.741Z,80.29
2023-04-16T13:12:37.771Z,80.18
2023-04-16T13:13:37.756Z,80.18
2023-04-16T13:14:37.728Z,79.98
2023-04-16T13:15:37.759Z,80.85
2023-04-16T13:16:37.713Z,80.45
2023-04-16T13:17:37.732Z,80.69
2023-04-16T13:18:37.710Z,81.06
2023-04-16T13:19:37.700Z,80.99
2023-04-16T13:20:37.666Z,81.30
2023-04-16T13:21:37.640Z,79.10
2023-04-16T13:22:37.700Z,80.16
2023-04-16T13:23:37.623Z,81.99
2023-04-16T13:24:37.635Z,81.79
2023-04-16T13:25:37.640Z,82.60
2023-04-16T13:26:37.610Z,80.97
2023-04-16T13:27:37.603Z,81.27
2023-04-16T13:28:37.597Z,81.27
2023-04-16T13:29:37.568Z,81.65
2023-04-16T13:30:37.592Z,80.83
2023-04-16T13:31:37.550Z,80.02
2023-04-16T13:32:37.565Z,79.98
2023-04-16T13:33:37.517Z,78.96
2023-04-16T13:34:37.509Z,80.08
2023-04-16T13:35:37.531Z,80.96
2023-04-16T13:36:37.499Z,78.96
2023-04-16T13:37:37.473Z,79.41
2023-04-16T13:38:37.466Z,80.26
2023-04-16T13:39:37.507Z,81.54
2023-04-16T13:40:37.436Z,80.46
2023-04-16T13:41:37.444Z,80.77
2023-04-16T13:42:37.449Z,81.17
2023-04-16T13:43:37.406Z,81.21
2023-04-16T13:44:37.413Z,80.40
2023-04-16T13:45:37.429Z,80.80
2023-04-16T13:46:37.487Z,81.21
2023-04-16T13:47:37.434Z,81.11
2023-04-16T13:48:37.371Z,81.31
2023-04-16T13:49:37.356Z,81.38
2023-04-16T13:50:37.328Z,81.68
2023-04-16T13:51:37.352Z,81.17
2023-04-16T13:52:37.324Z,79.75
2023-04-16T13:53:37.320Z,80.60
2023-04-16T13:54:37.310Z,81.72
2023-04-16T13:55:37.283Z,80.09
2023-04-16T13:56:37.279Z,80.60
2023-04-16T13:57:37.278Z,80.91
2023-04-16T13:58:37.243Z,81.62
2023-04-16T13:59:37.276Z,80.70
2023-04-16T14:00:37.276Z,81.72
2023-04-16T14:01:37.248Z,81.31
2023-04-16T14:02:37.427Z,80.94
2023-04-16T14:03:37.321Z,81.49
2023-04-16T14:04:37.264Z,82.10
2023-04-16T14:05:37.187Z,82.21
2023-04-16T14:06:37.173Z,82.00
2023-04-16T14:07:37.159Z,82.31
2023-04-16T14:08:37.163Z,82.51
2023-04-16T14:09:38.045Z,82.82
2023-04-16T14:10:37.182Z,82.21
2023-04-16T14:11:37.103Z,82.61
2023-04-16T14:12:37.106Z,81.80
2023-04-16T14:13:37.116Z,82.92
2023-04-16T14:14:37.138Z,83.59
2023-04-16T14:15:37.056Z,82.17
2023-04-16T14:16:37.075Z,82.88
2023-04-16T14:17:37.183Z,83.04
2023-04-16T14:18:37.058Z,82.94
2023-04-16T14:19:37.048Z,82.70
2023-04-16T14:20:37.016Z,83.51
2023-04-16T14:21:37.000Z,82.15
2023-04-16T14:22:37.011Z,81.04
2023-04-16T14:23:36.987Z,79.85
2023-04-16T14:24:37.010Z,80.66
2023-04-16T14:25:36.951Z,80.87
2023-04-16T14:26:37.024Z,81.17
2023-04-16T14:27:36.959Z,79.95
2023-04-16T14:28:36.959Z,80.50
2023-04-16T14:29:36.936Z,80.70
2023-04-16T14:30:36.905Z,80.80
2023-04-16T14:31:36.941Z,80.91
2023-04-16T14:32:36.947Z,80.70
2023-04-16T14:33:36.888Z,80.80
2023-04-16T14:34:36.932Z,80.50
2023-04-16T14:35:36.849Z,80.91
2023-04-16T14:36:36.893Z,80.29
2023-04-16T14:37:36.824Z,80.70
2023-04-16T14:38:36.836Z,80.91
2023-04-16T14:39:36.843Z,81.72
2023-04-16T14:40:36.817Z,80.26
2023-04-16T14:41:36.804Z,79.58
2023-04-16T14:42:36.833Z,80.26
2023-04-16T14:43:38.096Z,80.16
2023-04-16T14:44:36.782Z,79.44
2023-04-16T14:45:36.791Z,78.83
2023-04-16T14:46:36.760Z,79.54
2023-04-16T14:47:36.740Z,80.46
2023-04-16T14:48:36.741Z,80.26
2023-04-16T14:49:36.705Z,80.05
2023-04-16T14:50:36.694Z,80.87
2023-04-16T14:51:36.669Z,80.40
2023-04-16T14:52:36.698Z,80.40
2023-04-16T14:53:36.684Z,81.31
2023-04-16T14:54:36.650Z,80.50
2023-04-16T14:55:36.635Z,81.31
2023-04-16T14:56:36.744Z,81.21
2023-04-16T14:57:36.608Z,82.13
2023-04-16T14:58:39.048Z,81.48
2023-04-16T14:59:36.600Z,81.17
2023-04-16T15:00:36.593Z,80.16
2023-04-16T15:01:36.595Z,80.77
2023-04-16T15:02:36.793Z,81.27
2023-04-16T15:03:36.826Z,81.07
2023-04-16T15:04:36.553Z,79.95
2023-04-16T15:05:36.558Z,79.95
2023-04-16T15:06:36.536Z,81.17
2023-04-16T15:07:36.504Z,81.44
2023-04-16T15:08:36.487Z,81.85
2023-04-16T15:09:36.528Z,79.30
2023-04-16T15:10:36.488Z,80.66
2023-04-16T15:11:36.459Z,80.77
2023-04-16T15:12:36.449Z,81.68
2023-04-16T15:13:36.493Z,80.26
2023-04-16T15:14:36.483Z,79.75
2023-04-16T15:15:36.521Z,80.09
2023-04-16T15:16:36.463Z,80.70
2023-04-16T15:17:36.430Z,81.48
2023-04-16T15:18:36.378Z,80.77
2023-04-16T15:19:36.388Z,80.56
2023-04-16T15:20:36.370Z,80.56
2023-04-16T15:21:36.361Z,81.17
2023-04-16T15:22:36.350Z,81.88
2023-04-16T15:23:36.362Z,82.80
2023-04-16T15:24:36.328Z,80.77
2023-04-16T15:25:36.324Z,81.27
2023-04-16T15:26:36.296Z,80.87
2023-04-16T15:27:36.302Z,81.99
2023-04-16T15:28:36.302Z,81.01
2023-04-16T15:29:36.315Z,80.50
2023-04-16T15:30:36.274Z,81.31
2023-04-16T15:31:36.244Z,82.17
2023-04-16T15:32:36.262Z,82.17
2023-04-16T15:33:36.269Z,81.66
2023-04-16T15:34:36.222Z,81.52
2023-04-16T15:35:36.207Z,81.52
2023-04-16T15:36:36.183Z,81.93
2023-04-16T15:37:36.182Z,81.41
2023-04-16T15:38:36.172Z,82.29
2023-04-16T15:39:36.297Z,81.85
2023-04-16T15:40:36.270Z,81.65
2023-04-16T15:41:37.051Z,79.20
2023-04-16T15:42:36.151Z,79.57
2023-04-16T15:43:36.199Z,79.16
2023-04-16T15:44:36.116Z,79.74
2023-04-16T15:45:36.128Z,79.94
2023-04-16T15:46:36.147Z,80.11
2023-04-16T15:47:36.165Z,77.81
2023-04-16T15:48:36.069Z,78.62
2023-04-16T15:49:36.088Z,79.63
2023-04-16T15:50:36.134Z,78.92
2023-04-16T15:51:36.066Z,79.84
2023-04-16T15:52:36.083Z,77.74
2023-04-16T15:53:36.123Z,77.84
2023-04-16T15:54:36.074Z,78.66
2023-04-16T15:55:36.063Z,78.69
2023-04-16T15:56:36.043Z,79.81
2023-04-16T15:57:35.973Z,81.60
2023-04-16T15:58:36.015Z,80.90
2023-04-16T15:59:36.015Z,79.98
2023-04-16T16:00:35.971Z,80.24
2023-04-16T16:01:36.043Z,81.46
2023-04-16T16:02:36.249Z,81.06
2023-04-16T16:03:36.159Z,80.04
2023-04-16T16:04:36.025Z,78.86
2023-04-16T16:05:35.907Z,79.98
2023-04-16T16:06:35.884Z,79.53
2023-04-16T16:07:35.873Z,80.55
2023-04-16T16:08:35.861Z,80.55
2023-04-16T16:09:35.845Z,79.43
2023-04-16T16:10:35.847Z,80.38
2023-04-16T16:11:35.826Z,79.47
2023-04-16T16:12:35.813Z,79.77
2023-04-16T16:13:35.815Z,79.91
2023-04-16T16:14:36.182Z,79.71
2023-04-16T16:15:35.794Z,79.81
2023-04-16T16:16:35.889Z,80.32
2023-04-16T16:17:35.770Z,81.07
2023-04-16T16:18:35.753Z,81.48
2023-04-16T16:19:35.757Z,81.88
2023-04-16T16:20:35.726Z,80.97
2023-04-16T16:21:35.775Z,81.79
2023-04-16T16:22:35.709Z,81.99
2023-04-16T16:23:35.725Z,82.29
2023-04-16T16:24:35.722Z,81.99
2023-04-16T16:25:35.692Z,80.56
2023-04-16T16:26:35.693Z,80.87
2023-04-16T16:27:35.682Z,80.66
2023-04-16T16:28:35.635Z,81.38
2023-04-16T16:29:35.649Z,81.07
2023-04-16T16:30:35.622Z,82.50
2023-04-16T16:31:35.683Z,82.97
2023-04-16T16:32:35.648Z,81.54
2023-04-16T16:33:35.976Z,80.32
2023-04-16T16:34:35.593Z,79.50
2023-04-16T16:35:35.591Z,80.42
2023-04-16T16:36:35.592Z,81.74
2023-04-16T16:37:35.554Z,81.65
2023-04-16T16:38:35.526Z,79.61
2023-04-16T16:39:37.253Z,80.63
2023-04-16T16:40:35.518Z,80.22
2023-04-16T16:41:35.493Z,80.93
2023-04-16T16:42:35.569Z,80.83
2023-04-16T16:43:35.490Z,80.32
2023-04-16T16:44:35.529Z,80.22
2023-04-16T16:45:35.493Z,79.41
2023-04-16T16:46:35.452Z,80.52
2023-04-16T16:47:35.471Z,79.71
2023-04-16T16:48:35.449Z,80.52
2023-04-16T16:49:35.418Z,79.81
2023-04-16T16:50:35.408Z,80.22
2023-04-16T16:51:35.406Z,80.49
2023-04-16T16:52:35.385Z,80.38